Time;durP1;ratioP1;P1;durP2;ratioP2;P2;SDS_P1;SDS_P2;PMS_P1;PMS_P2;Temp;Humidity;BMP_temperature;BMP_pressure;BME280_temperature;BME280_humidity;BME280_pressure;Samples;Min_cycle;Max_cycle;Signal;HPM_P1;HPM_P2
2021/05/23 00:02:21;;;;;;;14.73;3.00;;;10.50;99.90;;;;;;5033331;28;20477;-81
2021/05/23 00:04:47;;;;;;;11.93;1.90;;;10.60;99.90;;;;;;5032942;28;20510;-80
2021/05/23 00:07:14;;;;;;;12.87;2.20;;;10.60;99.90;;;;;;5033032;28;21113;-81
2021/05/23 00:09:42;;;;;;;12.47;1.93;;;10.70;99.90;;;;;;5032753;28;20452;-81
2021/05/23 00:12:10;;;;;;;13.97;2.20;;;10.60;99.90;;;;;;5032082;28;20537;-80
2021/05/23 00:14:36;;;;;;;13.10;2.03;;;10.60;99.90;;;;;;5030530;28;20794;-80
2021/05/23 00:17:03;;;;;;;12.43;1.87;;;10.50;99.90;;;;;;5033007;28;20459;-81
2021/05/23 00:19:30;;;;;;;14.27;1.83;;;10.50;99.90;;;;;;5032982;28;20453;-81
2021/05/23 00:21:56;;;;;;;11.87;1.97;;;10.50;99.90;;;;;;5029817;28;21062;-80
2021/05/23 00:24:24;;;;;;;13.83;2.10;;;10.50;99.90;;;;;;5032953;28;20449;-81
2021/05/23 00:26:51;;;;;;;14.47;2.77;;;10.50;99.90;;;;;;5032781;28;20449;-81
2021/05/23 00:29:18;;;;;;;12.23;2.07;;;10.50;99.90;;;;;;5036001;28;20959;-81
2021/05/23 00:31:45;;;;;;;14.20;1.90;;;10.50;99.90;;;;;;5037387;28;20534;-82
2021/05/23 00:34:12;;;;;;;13.60;3.13;;;10.50;99.90;;;;;;5038337;28;20548;-82
2021/05/23 00:36:38;;;;;;;13.53;2.13;;;10.50;99.90;;;;;;5038206;28;20444;-81
2021/05/23 00:39:05;;;;;;;13.40;2.37;;;10.30;99.90;;;;;;5038681;28;20532;-81
2021/05/23 00:41:31;;;;;;;12.37;2.50;;;10.30;99.90;;;;;;5035322;28;20620;-82
2021/05/23 00:43:59;;;;;;;11.47;2.10;;;10.40;99.90;;;;;;5038238;28;20490;-81
2021/05/23 00:46:25;;;;;;;12.10;2.57;;;10.30;99.90;;;;;;5037669;28;20453;-81
2021/05/23 00:48:51;;;;;;;14.50;2.63;;;10.30;99.90;;;;;;5038169;28;20449;-81
2021/05/23 00:51:18;;;;;;;12.13;2.40;;;10.20;99.90;;;;;;5036919;28;20484;-81
2021/05/23 00:53:44;;;;;;;13.90;2.50;;;10.30;99.90;;;;;;5037711;28;20476;-82
2021/05/23 00:56:12;;;;;;;14.23;2.70;;;10.20;99.90;;;;;;5037266;28;20504;-80
2021/05/23 00:58:39;;;;;;;14.50;2.37;;;10.20;99.90;;;;;;5037356;28;21008;-81
2021/05/23 01:01:42;;;;;;;12.50;2.03;;;10.20;99.90;;;;;;5037187;28;20460;-81
2021/05/23 01:04:09;;;;;;;12.40;2.60;;;10.30;99.90;;;;;;5037814;28;20456;-81
2021/05/23 01:06:36;;;;;;;13.60;2.30;;;10.30;99.90;;;;;;5037203;28;20977;-81
2021/05/23 01:09:06;;;;;;;11.60;2.20;;;10.30;99.90;;;;;;5037226;28;20491;-81
2021/05/23 01:12:11;;;;;;;12.10;2.40;;;10.30;99.90;;;;;;5036679;28;20489;-82
2021/05/23 01:15:04;;;;;;;11.20;2.00;;;10.20;99.90;;;;;;5037809;28;20456;-81
2021/05/23 01:17:45;;;;;;;11.70;1.67;;;10.30;99.90;;;;;;5013103;28;20460;-81
2021/05/23 01:20:41;;;;;;;15.10;2.93;;;10.30;99.90;;;;;;5037990;28;20483;-82
2021/05/23 01:23:15;;;;;;;14.83;3.43;;;10.20;99.90;;;;;;5046124;28;20544;-82
2021/05/23 01:25:45;;;;;;;11.00;2.17;;;10.20;99.90;;;;;;5053604;28;20886;-83
2021/05/23 01:28:12;;;;;;;15.50;3.10;;;10.20;99.90;;;;;;5054005;28;20445;-83
2021/05/23 01:30:44;;;;;;;12.87;2.73;;;10.30;99.90;;;;;;5051911;28;20441;-81
2021/05/23 01:33:12;;;;;;;12.53;3.00;;;10.30;99.90;;;;;;5050289;28;20492;-81
2021/05/23 01:35:41;;;;;;;17.97;4.37;;;10.40;99.90;;;;;;5052363;28;20499;-81
2021/05/23 01:38:12;;;;;;;13.53;3.83;;;10.30;99.90;;;;;;5049120;28;21012;-82
2021/05/23 01:40:39;;;;;;;15.80;5.93;;;10.30;99.90;;;;;;5036795;28;20459;-81
2021/05/23 01:43:08;;;;;;;15.73;4.87;;;10.20;99.90;;;;;;5037425;28;20525;-82
2021/05/23 01:45:35;;;;;;;16.10;5.43;;;10.20;99.90;;;;;;5017977;28;20454;-83
2021/05/23 01:48:04;;;;;;;15.70;5.97;;;10.20;99.90;;;;;;5022480;28;20499;-82
2021/05/23 01:50:30;;;;;;;15.57;6.20;;;10.30;99.90;;;;;;5037448;28;21063;-82
2021/05/23 01:52:58;;;;;;;19.27;6.80;;;10.20;99.90;;;;;;5036382;28;21081;-81
2021/05/23 01:55:26;;;;;;;17.60;6.93;;;10.20;99.90;;;;;;5037167;28;20539;-82
2021/05/23 01:57:53;;;;;;;17.43;6.97;;;10.20;99.90;;;;;;5037133;28;20928;-81
2021/05/23 02:00:23;;;;;;;19.23;7.27;;;10.10;99.90;;;;;;5037156;28;20460;-81
2021/05/23 02:02:49;;;;;;;16.70;6.77;;;10.10;99.90;;;;;;5033809;28;20548;-82
2021/05/23 02:05:16;;;;;;;15.17;7.00;;;10.20;99.90;;;;;;5036945;28;20449;-81
2021/05/23 02:07:42;;;;;;;21.47;8.67;;;10.20;99.90;;;;;;5036427;28;20459;-81
2021/05/23 02:10:11;;;;;;;18.90;7.23;;;10.20;99.90;;;;;;5036586;28;21037;-82
2021/05/23 02:12:38;;;;;;;18.30;9.00;;;10.20;99.90;;;;;;5035100;28;20557;-81
2021/05/23 02:15:06;;;;;;;17.17;8.30;;;10.30;99.90;;;;;;5063630;23;20496;-82
2021/05/23 02:17:35;;;;;;;19.13;8.80;;;10.30;99.90;;;;;;5027666;28;20507;-81
2021/05/23 02:20:02;;;;;;;19.97;8.83;;;10.30;99.90;;;;;;5036083;28;20474;-81
2021/05/23 02:22:28;;;;;;;17.83;8.17;;;10.30;99.90;;;;;;5035509;28;20448;-81
2021/05/23 02:24:54;;;;;;;18.60;9.00;;;10.30;99.90;;;;;;5037102;28;20477;-81
2021/05/23 02:27:20;;;;;;;19.20;8.10;;;10.30;99.90;;;;;;5036601;28;20540;-81
2021/05/23 02:29:47;;;;;;;16.80;6.80;;;10.40;99.90;;;;;;5036327;28;20840;-81
2021/05/23 02:32:13;;;;;;;17.77;7.10;;;10.40;99.90;;;;;;5035839;28;20522;-81
2021/05/23 02:34:47;;;;;;;16.93;5.70;;;10.30;99.90;;;;;;5036397;28;20480;-82
2021/05/23 02:37:14;;;;;;;13.83;4.90;;;10.30;99.90;;;;;;5037058;28;20976;-80
2021/05/23 02:39:40;;;;;;;12.97;4.37;;;10.30;99.90;;;;;;5036864;28;20449;-81
2021/05/23 02:42:06;;;;;;;15.60;5.87;;;10.30;99.90;;;;;;5034790;28;20453;-81
2021/05/23 02:44:33;;;;;;;16.40;5.00;;;10.30;99.90;;;;;;5036650;28;20480;-81
2021/05/23 02:47:01;;;;;;;17.40;4.93;;;10.30;99.90;;;;;;5036979;28;20457;-81
2021/05/23 02:49:27;;;;;;;15.07;4.90;;;10.30;99.90;;;;;;5036848;28;20460;-81
2021/05/23 02:51:54;;;;;;;16.30;4.30;;;10.30;99.90;;;;;;5035052;28;20481;-81
2021/05/23 02:54:20;;;;;;;16.93;4.20;;;10.30;99.90;;;;;;5036059;28;20526;-82
2021/05/23 02:56:47;;;;;;;16.80;5.07;;;10.30;99.90;;;;;;5035853;28;20456;-81
2021/05/23 02:59:13;;;;;;;13.97;3.80;;;10.30;99.90;;;;;;5041956;28;20525;-80
2021/05/23 03:01:39;;;;;;;15.23;4.17;;;10.30;99.90;;;;;;5041626;28;20449;-83
2021/05/23 03:04:06;;;;;;;12.33;4.03;;;10.20;99.90;;;;;;5041286;28;20832;-82
2021/05/23 03:06:32;;;;;;;14.67;4.47;;;10.30;99.90;;;;;;5042884;28;20506;-82
2021/05/23 03:08:59;;;;;;;13.60;4.80;;;10.30;99.90;;;;;;5041580;28;20459;-81
2021/05/23 03:11:25;;;;;;;15.30;5.40;;;10.30;99.90;;;;;;5039372;28;20552;-83
2021/05/23 03:13:51;;;;;;;14.80;6.43;;;10.40;99.90;;;;;;5039434;28;20459;-83
2021/05/23 03:16:18;;;;;;;15.40;6.47;;;10.50;99.90;;;;;;5039344;28;20540;-83
2021/05/23 03:18:44;;;;;;;17.73;6.80;;;10.50;99.90;;;;;;5038528;28;20487;-83
2021/05/23 03:21:10;;;;;;;14.37;5.60;;;10.50;99.90;;;;;;5040322;28;20445;-83
2021/05/23 03:23:37;;;;;;;20.17;7.40;;;10.50;99.90;;;;;;5039091;28;20524;-82
2021/05/23 03:26:04;;;;;;;18.67;7.40;;;10.50;99.90;;;;;;5038300;28;20468;-82
2021/05/23 03:28:30;;;;;;;15.40;7.00;;;10.50;99.90;;;;;;5040240;28;20677;-82
2021/05/23 03:30:56;;;;;;;17.40;7.63;;;10.50;99.90;;;;;;5039501;28;20540;-82
2021/05/23 03:33:23;;;;;;;21.90;9.40;;;10.60;99.90;;;;;;5038175;28;20491;-83
2021/05/23 03:35:49;;;;;;;22.47;10.90;;;10.60;99.90;;;;;;5039611;28;20477;-84
2021/05/23 03:38:16;;;;;;;24.90;11.47;;;10.50;99.90;;;;;;5039989;28;20520;-83
2021/05/23 03:40:42;;;;;;;20.90;11.40;;;10.50;99.90;;;;;;5042062;28;20624;-82
2021/05/23 03:43:10;;;;;;;21.00;11.50;;;10.50;99.90;;;;;;5048693;28;20700;-83
2021/05/23 03:45:37;;;;;;;30.60;16.13;;;10.50;99.90;;;;;;5049255;28;20537;-82
2021/05/23 03:48:04;;;;;;;22.70;13.43;;;10.50;99.90;;;;;;5045642;28;20535;-82
2021/05/23 03:50:31;;;;;;;28.03;14.57;;;10.50;99.90;;;;;;5047258;28;20547;-82
2021/05/23 03:52:59;;;;;;;24.13;14.10;;;10.40;99.90;;;;;;5036468;28;20496;-82
2021/05/23 03:55:26;;;;;;;26.87;15.20;;;10.40;99.90;;;;;;5035532;28;20540;-81
2021/05/23 03:57:53;;;;;;;23.60;12.70;;;10.40;99.90;;;;;;5040925;28;20885;-82
2021/05/23 04:00:22;;;;;;;24.93;14.10;;;10.30;99.90;;;;;;5037594;28;20453;-82
2021/05/23 04:02:51;;;;;;;24.30;13.90;;;10.30;99.90;;;;;;5037354;28;20453;-83
2021/05/23 04:05:18;;;;;;;25.17;14.80;;;10.30;99.90;;;;;;5040819;28;20814;-82
2021/05/23 04:07:44;;;;;;;28.43;16.93;;;10.30;99.90;;;;;;5041906;28;20453;-82
2021/05/23 04:10:14;;;;;;;27.10;14.83;;;10.30;99.90;;;;;;5041619;28;20516;-82
2021/05/23 04:12:42;;;;;;;24.60;15.40;;;10.30;99.90;;;;;;5042098;28;20554;-82
2021/05/23 04:15:10;;;;;;;25.53;15.53;;;10.40;99.90;;;;;;5040823;28;20875;-82
2021/05/23 04:17:38;;;;;;;25.57;14.90;;;10.50;99.90;;;;;;5042105;28;20456;-82
2021/05/23 04:20:05;;;;;;;24.53;14.67;;;10.40;99.90;;;;;;5040984;28;20460;-82
2021/05/23 04:22:32;;;;;;;23.40;15.50;;;10.40;99.90;;;;;;5042103;28;20532;-83
2021/05/23 04:25:00;;;;;;;31.20;18.10;;;10.40;99.90;;;;;;5043933;28;20472;-82
2021/05/23 04:27:26;;;;;;;27.87;17.23;;;10.40;99.90;;;;;;5041396;28;20460;-83
2021/05/23 04:29:52;;;;;;;24.83;16.00;;;10.40;99.90;;;;;;5041152;28;20906;-83
2021/05/23 04:32:19;;;;;;;25.33;15.83;;;10.50;99.90;;;;;;5041202;28;20484;-83
2021/05/23 04:34:46;;;;;;;26.07;16.07;;;10.50;99.90;;;;;;5040701;28;20526;-83
2021/05/23 04:37:15;;;;;;;24.23;15.70;;;10.60;99.90;;;;;;5041386;28;20459;-83
2021/05/23 04:39:41;;;;;;;25.87;16.23;;;10.70;99.90;;;;;;5042504;28;20457;-84
2021/05/23 04:42:08;;;;;;;250.93;237.00;;;10.80;99.90;;;;;;5036770;28;20615;-84
2021/05/23 04:44:34;;;;;;;29.10;16.03;;;10.70;99.90;;;;;;5040433;28;21048;-84
2021/05/23 04:47:00;;;;;;;23.60;14.47;;;10.80;99.90;;;;;;5041172;28;20452;-84
2021/05/23 04:49:27;;;;;;;14.93;5.63;;;10.80;99.90;;;;;;5035674;28;20505;-83
2021/05/23 04:51:54;;;;;;;17.17;8.03;;;11.10;99.90;;;;;;5038337;28;20575;-82
2021/05/23 04:54:20;;;;;;;22.50;12.80;;;11.50;99.90;;;;;;5045170;28;20583;-83
2021/05/23 04:56:47;;;;;;;26.10;14.27;;;11.40;99.90;;;;;;5045190;28;20535;-83
2021/05/23 04:59:13;;;;;;;26.00;15.63;;;11.30;99.90;;;;;;5043600;28;20449;-83
2021/05/23 05:01:39;;;;;;;26.27;13.90;;;11.20;99.90;;;;;;5043203;28;20520;-83
2021/05/23 05:04:06;;;;;;;28.20;17.07;;;11.10;99.90;;;;;;5043611;28;20524;-82
2021/05/23 05:06:32;;;;;;;25.67;15.43;;;11.00;99.90;;;;;;5044059;28;20476;-83
2021/05/23 05:08:59;;;;;;;28.30;16.37;;;11.10;99.90;;;;;;5041805;28;20535;-84
2021/05/23 05:11:25;;;;;;;26.57;14.97;;;11.10;99.90;;;;;;5043062;28;21228;-83
2021/05/23 05:13:52;;;;;;;24.27;14.37;;;11.20;99.90;;;;;;5039896;28;20483;-82
2021/05/23 05:16:18;;;;;;;28.30;16.67;;;11.30;99.90;;;;;;5043746;28;20463;-83
2021/05/23 05:18:44;;;;;;;24.10;14.33;;;11.20;99.90;;;;;;5043391;28;20463;-83
2021/05/23 05:21:10;;;;;;;25.70;14.43;;;11.30;99.90;;;;;;5041771;28;20456;-82
2021/05/23 05:23:37;;;;;;;23.90;12.73;;;11.30;99.90;;;;;;5043103;28;20449;-82
2021/05/23 05:26:05;;;;;;;26.97;14.97;;;11.40;99.90;;;;;;5043411;28;20489;-83
2021/05/23 05:28:31;;;;;;;22.47;12.33;;;11.60;99.90;;;;;;5043687;28;20556;-83
2021/05/23 05:30:57;;;;;;;23.43;13.10;;;11.60;99.90;;;;;;5042863;28;20535;-84
2021/05/23 05:33:24;;;;;;;25.30;13.63;;;11.60;99.90;;;;;;5041490;28;20845;-82
2021/05/23 05:35:50;;;;;;;23.87;13.57;;;11.60;99.90;;;;;;5043914;28;20530;-83
2021/05/23 05:38:17;;;;;;;23.27;13.50;;;11.60;99.90;;;;;;5050829;28;20464;-83
2021/05/23 05:40:43;;;;;;;25.37;12.10;;;11.70;99.90;;;;;;5046037;28;20539;-84
2021/05/23 05:43:11;;;;;;;24.63;13.77;;;11.90;99.90;;;;;;5045414;28;20467;-84
2021/05/23 05:45:37;;;;;;;24.60;12.90;;;11.80;99.90;;;;;;5044347;28;20963;-84
2021/05/23 05:48:14;;;;;;;22.50;12.23;;;12.00;99.90;;;;;;5042663;28;20461;-82
2021/05/23 05:50:40;;;;;;;19.63;10.40;;;12.00;99.90;;;;;;5041034;28;20445;-84
2021/05/23 05:53:07;;;;;;;21.00;11.10;;;11.90;99.90;;;;;;5041260;28;20490;-82
2021/05/23 05:55:33;;;;;;;21.40;11.50;;;11.80;99.90;;;;;;5040179;28;20892;-83
2021/05/23 05:58:05;;;;;;;20.57;8.50;;;11.60;99.90;;;;;;5043401;28;20450;-83
2021/05/23 06:00:32;;;;;;;22.33;8.73;;;11.40;99.90;;;;;;5045543;28;21300;-83
2021/05/23 06:03:01;;;;;;;19.63;8.67;;;11.20;99.90;;;;;;5040750;28;20540;-83
2021/05/23 06:05:30;;;;;;;18.70;8.20;;;11.10;99.90;;;;;;5040047;28;21051;-81
2021/05/23 06:07:56;;;;;;;17.40;6.47;;;11.10;99.90;;;;;;5039906;28;20830;-81
2021/05/23 06:10:23;;;;;;;18.23;7.60;;;11.00;99.90;;;;;;5038854;28;20453;-80
2021/05/23 06:12:52;;;;;;;16.70;6.90;;;10.90;99.90;;;;;;5039423;28;20598;-81
2021/05/23 06:15:19;;;;;;;16.27;6.47;;;10.90;99.90;;;;;;5038519;28;20517;-83
2021/05/23 06:17:48;;;;;;;16.13;7.00;;;10.90;99.90;;;;;;5040537;28;20453;-83
2021/05/23 06:20:15;;;;;;;21.23;9.03;;;11.00;99.90;;;;;;5026860;28;20457;-80
2021/05/23 06:22:41;;;;;;;20.10;8.60;;;11.00;99.90;;;;;;5039433;28;20445;-83
2021/05/23 06:25:09;;;;;;;17.00;7.80;;;11.00;99.90;;;;;;5038650;28;20922;-81
2021/05/23 06:27:37;;;;;;;20.83;9.80;;;11.20;99.90;;;;;;5037449;28;20463;-80
2021/05/23 06:30:04;;;;;;;20.53;10.00;;;11.40;99.90;;;;;;5042264;28;20454;-81
2021/05/23 06:32:30;;;;;;;19.97;8.67;;;11.50;99.90;;;;;;5034336;28;20526;-81
2021/05/23 06:34:58;;;;;;;19.40;9.80;;;11.40;99.90;;;;;;5042170;28;20857;-83
2021/05/23 06:37:24;;;;;;;21.97;9.93;;;11.20;99.90;;;;;;5042081;28;20987;-81
2021/05/23 06:39:50;;;;;;;16.67;7.47;;;11.10;99.90;;;;;;5042217;28;20528;-84
2021/05/23 06:42:18;;;;;;;17.77;6.80;;;11.00;99.90;;;;;;5040974;28;20528;-81
2021/05/23 06:44:47;;;;;;;22.83;5.17;;;10.90;99.90;;;;;;5038031;28;20910;-84
2021/05/23 06:47:13;;;;;;;16.37;5.83;;;10.70;99.90;;;;;;5036820;28;20898;-85
2021/05/23 06:49:41;;;;;;;19.50;6.50;;;10.60;99.90;;;;;;5037092;28;21007;-85
2021/05/23 06:52:09;;;;;;;21.10;6.63;;;10.60;99.90;;;;;;5036202;28;20480;-85
2021/05/23 06:54:35;;;;;;;15.23;5.57;;;10.70;99.90;;;;;;5038596;28;20468;-84
2021/05/23 06:57:01;;;;;;;17.70;5.87;;;10.70;99.90;;;;;;5040268;28;20791;-83
2021/05/23 06:59:28;;;;;;;16.90;6.37;;;10.80;99.90;;;;;;5042181;28;20468;-85
2021/05/23 07:01:54;;;;;;;16.23;5.00;;;10.90;99.90;;;;;;5041430;28;20449;-85
2021/05/23 07:04:20;;;;;;;16.73;5.17;;;11.00;99.90;;;;;;5040747;28;20898;-85
2021/05/23 07:06:46;;;;;;;19.73;5.23;;;11.00;99.90;;;;;;5041466;28;20488;-84
2021/05/23 07:09:14;;;;;;;18.57;4.70;;;11.00;99.90;;;;;;5042292;28;20476;-85
2021/05/23 07:11:40;;;;;;;16.27;4.00;;;10.90;99.90;;;;;;5041285;28;20508;-85
2021/05/23 07:14:06;;;;;;;19.07;4.13;;;11.00;99.90;;;;;;5042195;28;20484;-85
2021/05/23 07:16:33;;;;;;;15.00;4.23;;;11.10;99.90;;;;;;5041676;28;20516;-85
2021/05/23 07:18:59;;;;;;;21.83;4.80;;;11.00;99.90;;;;;;5041693;28;20477;-84
2021/05/23 07:21:25;;;;;;;17.87;4.20;;;10.90;99.90;;;;;;5042101;28;20576;-84
2021/05/23 07:23:52;;;;;;;14.57;4.13;;;10.90;99.90;;;;;;5041494;28;20496;-84
2021/05/23 07:26:19;;;;;;;18.43;3.57;;;10.90;99.90;;;;;;5041204;28;20459;-85
2021/05/23 07:28:46;;;;;;;19.70;4.23;;;11.00;99.90;;;;;;5038943;28;20874;-84
2021/05/23 07:31:12;;;;;;;15.83;3.67;;;11.10;99.90;;;;;;5038902;28;20457;-85
2021/05/23 07:33:39;;;;;;;15.30;3.27;;;11.40;99.90;;;;;;5038121;28;20483;-84
2021/05/23 07:36:07;;;;;;;16.03;4.30;;;11.60;99.90;;;;;;5037351;28;20983;-84
2021/05/23 07:38:33;;;;;;;22.70;4.27;;;11.60;99.90;;;;;;5036985;28;20494;-84
2021/05/23 07:41:00;;;;;;;13.93;3.37;;;11.90;99.90;;;;;;5037019;28;20516;-84
2021/05/23 07:43:27;;;;;;;14.53;3.50;;;12.20;99.90;;;;;;5035057;28;20456;-84
2021/05/23 07:45:54;;;;;;;14.90;3.00;;;12.30;99.90;;;;;;5035580;28;20567;-85
2021/05/23 07:48:20;;;;;;;9.93;2.30;;;12.50;99.90;;;;;;5035578;28;20452;-84
2021/05/23 07:50:47;;;;;;;13.83;2.63;;;12.90;99.90;;;;;;5034683;28;20530;-84
2021/05/23 07:53:14;;;;;;;12.83;2.57;;;13.00;99.90;;;;;;5031725;28;21062;-82
2021/05/23 07:55:40;;;;;;;16.43;2.70;;;13.10;99.90;;;;;;5036654;28;20993;-84
2021/05/23 07:58:07;;;;;;;20.20;4.10;;;13.30;99.90;;;;;;5034907;28;20456;-83
2021/05/23 08:00:34;;;;;;;13.13;2.77;;;13.20;99.90;;;;;;5036544;28;20457;-84
2021/05/23 08:03:00;;;;;;;12.30;2.40;;;13.40;99.90;;;;;;5032970;28;20445;-83
2021/05/23 08:05:27;;;;;;;14.03;2.70;;;13.70;99.90;;;;;;5035772;28;20476;-83
2021/05/23 08:07:54;;;;;;;14.60;2.20;;;14.00;99.90;;;;;;5047652;28;20526;-84
2021/05/23 08:10:21;;;;;;;11.90;2.50;;;14.30;99.90;;;;;;5046901;28;20517;-84
2021/05/23 08:12:47;;;;;;;12.47;3.27;;;14.20;99.90;;;;;;5041728;28;20490;-84
2021/05/23 08:15:14;;;;;;;11.30;2.07;;;13.90;99.90;;;;;;5042057;28;20544;-84
2021/05/23 08:17:42;;;;;;;10.27;2.03;;;14.00;99.90;;;;;;5050432;28;20441;-85
2021/05/23 08:20:09;;;;;;;9.90;2.03;;;14.30;99.90;;;;;;5046044;28;20512;-84
2021/05/23 08:22:36;;;;;;;10.80;2.10;;;14.50;99.90;;;;;;5041956;28;20475;-85
2021/05/23 08:25:07;;;;;;;11.07;1.73;;;14.80;99.90;;;;;;5043555;28;20469;-85
2021/05/23 08:27:33;;;;;;;18.17;2.60;;;15.00;99.90;;;;;;5043103;28;20595;-84
2021/05/23 08:30:00;;;;;;;10.03;1.97;;;15.00;99.90;;;;;;5042912;28;20458;-84
2021/05/23 08:32:26;;;;;;;12.67;2.17;;;15.00;99.90;;;;;;5042176;28;20903;-85
2021/05/23 08:34:54;;;;;;;14.40;1.80;;;15.10;99.90;;;;;;5043822;28;20555;-84
2021/05/23 08:37:20;;;;;;;11.50;2.40;;;15.60;99.90;;;;;;5041824;28;20445;-85
2021/05/23 08:39:47;;;;;;;10.00;1.70;;;15.30;99.90;;;;;;5071032;23;20538;-83
2021/05/23 08:42:14;;;;;;;10.73;1.73;;;15.40;99.90;;;;;;5061686;28;20462;-83
2021/05/23 08:44:41;;;;;;;613.47;575.70;;;16.10;99.90;;;;;;5062457;28;20444;-83
2021/05/23 08:47:08;;;;;;;1999.90;999.90;;;15.70;99.90;;;;;;5059261;28;20484;-84
2021/05/23 08:49:37;;;;;;;774.70;710.83;;;16.00;99.90;;;;;;5060223;28;20448;-84
2021/05/23 08:52:04;;;;;;;28.93;23.10;;;16.70;99.90;;;;;;5060929;28;20564;-83
2021/05/23 08:54:41;;;;;;;9.67;1.77;;;17.80;99.90;;;;;;5063248;28;20440;-85
2021/05/23 08:57:08;;;;;;;6.07;1.30;;;18.20;99.90;;;;;;5063203;28;20467;-85
2021/05/23 08:59:34;;;;;;;6.53;1.10;;;18.20;99.90;;;;;;5060661;28;20449;-84
2021/05/23 09:02:04;;;;;;;7.20;1.47;;;18.40;99.90;;;;;;5058830;28;20447;-84
2021/05/23 09:04:31;;;;;;;10.13;1.33;;;19.90;99.90;;;;;;5059574;28;20456;-84
2021/05/23 09:07:01;;;;;;;6.90;1.70;;;20.40;99.90;;;;;;5055102;28;21192;-84
2021/05/23 09:09:28;;;;;;;6.93;1.40;;;21.20;99.90;;;;;;5050334;28;20532;-84
2021/05/23 09:12:01;;;;;;;7.57;1.73;;;20.30;99.90;;;;;;5057526;28;20985;-84
2021/05/23 09:14:35;;;;;;;6.23;1.63;;;19.70;99.90;;;;;;5047314;28;20510;-85
2021/05/23 09:17:04;;;;;;;11.03;1.90;;;19.00;99.90;;;;;;5055122;28;20542;-84
2021/05/23 09:19:39;;;;;;;5.73;1.47;;;20.40;99.90;;;;;;5059662;28;20952;-84
2021/05/23 09:22:09;;;;;;;4.77;1.13;;;21.60;99.90;;;;;;5059092;28;20454;-84
2021/05/23 09:24:51;;;;;;;6.37;1.33;;;22.10;99.90;;;;;;5057776;28;20464;-84
2021/05/23 09:27:17;;;;;;;7.53;1.60;;;22.40;98.90;;;;;;5056000;28;20543;-83
2021/05/23 09:29:45;;;;;;;7.67;2.13;;;23.40;97.10;;;;;;5053400;28;21006;-83
2021/05/23 09:32:16;;;;;;;9.70;1.60;;;23.50;93.00;;;;;;5052066;28;20494;-84
2021/05/23 09:34:42;;;;;;;7.50;1.63;;;22.60;91.00;;;;;;5054688;28;20540;-82
2021/05/23 09:37:13;;;;;;;6.17;1.47;;;20.50;91.20;;;;;;5053607;28;20456;-84
2021/05/23 09:39:40;;;;;;;8.33;1.70;;;20.70;93.10;;;;;;5054381;28;20905;-85
2021/05/23 09:42:13;;;;;;;9.43;2.40;;;21.30;95.70;;;;;;5053286;28;20513;-83
2021/05/23 09:44:43;;;;;;;6.87;1.43;;;22.20;93.20;;;;;;5054677;28;20859;-83
2021/05/23 09:47:11;;;;;;;5.00;1.40;;;23.80;92.00;;;;;;5054445;28;20548;-83
2021/05/23 09:49:42;;;;;;;6.77;1.30;;;24.00;86.90;;;;;;5056629;28;20986;-84
2021/05/23 09:52:11;;;;;;;6.33;1.30;;;22.50;84.50;;;;;;5052026;28;20549;-84
2021/05/23 09:54:46;;;;;;;8.90;1.53;;;21.00;85.40;;;;;;5053604;28;20531;-82
2021/05/23 09:57:14;;;;;;;7.00;1.40;;;19.60;86.80;;;;;;5055267;28;20627;-85
2021/05/23 09:59:40;;;;;;;5.87;1.40;;;18.70;90.60;;;;;;5054192;28;21057;-86
2021/05/23 10:02:08;;;;;;;5.70;1.40;;;18.40;91.90;;;;;;5051770;28;20531;-86
2021/05/23 10:04:36;;;;;;;6.30;1.20;;;18.20;94.10;;;;;;5055186;28;20535;-84
2021/05/23 10:07:04;;;;;;;12.00;1.97;;;18.10;93.10;;;;;;5055075;28;20452;-85
2021/05/23 10:09:31;;;;;;;6.70;1.10;;;17.50;93.00;;;;;;5055291;28;20462;-85
2021/05/23 10:11:58;;;;;;;5.73;1.40;;;16.90;98.00;;;;;;5052570;28;20460;-83
2021/05/23 10:14:27;;;;;;;8.70;1.63;;;16.60;99.80;;;;;;5055209;28;20480;-85
2021/05/23 10:16:54;;;;;;;6.27;1.23;;;16.40;99.90;;;;;;5055186;28;20824;-85
2021/05/23 10:19:23;;;;;;;8.13;1.40;;;16.30;99.90;;;;;;5057198;28;20476;-85
2021/05/23 10:21:51;;;;;;;6.67;1.63;;;16.40;99.90;;;;;;5056496;28;20650;-86
2021/05/23 10:24:24;;;;;;;7.67;2.07;;;16.10;99.90;;;;;;5056765;28;20452;-84
2021/05/23 10:26:55;;;;;;;8.03;1.57;;;15.80;99.90;;;;;;5059458;28;20550;-84
2021/05/23 10:29:23;;;;;;;8.40;1.73;;;15.80;99.90;;;;;;5057491;28;20460;-85
2021/05/23 10:32:04;;;;;;;5.13;1.10;;;15.60;99.90;;;;;;5056512;28;20539;-84
2021/05/23 10:34:35;;;;;;;5.90;1.23;;;15.30;99.90;;;;;;5056132;28;20452;-86
2021/05/23 10:37:02;;;;;;;6.83;1.80;;;15.00;99.90;;;;;;5056258;28;20448;-84
2021/05/23 10:39:36;;;;;;;7.80;1.47;;;15.10;99.90;;;;;;5055021;28;20452;-84
2021/05/23 10:42:03;;;;;;;9.30;1.23;;;15.20;99.90;;;;;;5049686;28;20992;-85
2021/05/23 10:44:43;;;;;;;7.10;1.30;;;16.00;99.90;;;;;;5054267;28;20460;-85
2021/05/23 10:47:12;;;;;;;4.97;1.10;;;18.30;99.90;;;;;;5055642;28;20535;-87
2021/05/23 10:49:50;;;;;;;6.40;1.27;;;20.40;99.90;;;;;;5054999;28;20551;-86
2021/05/23 10:52:18;;;;;;;6.70;1.10;;;23.50;95.90;;;;;;5056527;28;20498;-86
2021/05/23 10:54:55;;;;;;;5.93;1.30;;;24.70;88.60;;;;;;5054297;28;20490;-86
2021/05/23 10:57:22;;;;;;;5.20;1.20;;;24.10;81.10;;;;;;5056253;28;20467;-85
2021/05/23 10:59:58;;;;;;;5.80;1.47;;;22.80;77.20;;;;;;5055642;28;20479;-86
2021/05/23 11:02:36;;;;;;;5.30;1.50;;;21.40;80.70;;;;;;5055401;28;20443;-86
2021/05/23 11:05:06;;;;;;;8.03;2.60;;;20.40;80.60;;;;;;5056298;28;20538;-86
2021/05/23 11:07:33;;;;;;;6.77;1.67;;;20.30;79.60;;;;;;5057461;28;20448;-86
2021/05/23 11:10:01;;;;;;;6.77;1.37;;;22.00;83.60;;;;;;5057830;28;20452;-86
2021/05/23 11:12:28;;;;;;;7.80;1.50;;;25.40;79.60;;;;;;5057680;28;20480;-87
2021/05/23 11:14:55;;;;;;;7.40;1.67;;;26.40;69.40;;;;;;5058130;28;20456;-85
2021/05/23 11:17:22;;;;;;;4.80;1.30;;;26.50;66.40;;;;;;5059121;28;20846;-86
2021/05/23 11:19:50;;;;;;;4.97;1.27;;;26.70;66.30;;;;;;5059160;28;20499;-85
2021/05/23 11:22:16;;;;;;;5.83;1.67;;;27.80;64.00;;;;;;5059085;28;20509;-86
2021/05/23 11:24:45;;;;;;;5.67;1.97;;;28.50;59.90;;;;;;5058959;28;20543;-86
2021/05/23 11:27:13;;;;;;;6.03;1.47;;;29.70;59.40;;;;;;5059119;28;20448;-85
2021/05/23 11:29:45;;;;;;;7.97;2.27;;;30.50;55.00;;;;;;5058712;28;20452;-86
2021/05/23 11:32:12;;;;;;;5.13;0.97;;;29.80;55.10;;;;;;5060828;28;20487;-86
2021/05/23 11:34:38;;;;;;;6.20;1.30;;;29.80;55.40;;;;;;5072556;28;20555;-88
2021/05/23 11:37:05;;;;;;;5.30;1.30;;;29.90;55.50;;;;;;5073075;28;20452;-86
2021/05/23 11:39:32;;;;;;;5.47;1.30;;;28.90;51.60;;;;;;5070748;28;20486;-86
2021/05/23 11:41:59;;;;;;;5.13;1.20;;;29.00;50.90;;;;;;5072525;28;20475;-85
2021/05/23 11:44:34;;;;;;;5.30;1.20;;;28.60;52.30;;;;;;5073208;28;20819;-85
2021/05/23 11:47:01;;;;;;;5.00;1.50;;;27.30;53.80;;;;;;5052616;28;20814;-86
2021/05/23 11:49:29;;;;;;;6.57;1.67;;;26.60;53.90;;;;;;5051956;28;20501;-85
2021/05/23 11:51:58;;;;;;;6.00;1.60;;;25.50;54.30;;;;;;5056787;28;20463;-85
2021/05/23 11:54:25;;;;;;;6.53;2.00;;;24.50;54.10;;;;;;5061221;28;20456;-87
2021/05/23 11:56:55;;;;;;;7.30;1.53;;;23.40;56.70;;;;;;5060165;28;20543;-86
2021/05/23 11:59:21;;;;;;;6.77;1.90;;;22.60;57.00;;;;;;5060961;28;20455;-85
2021/05/23 12:01:49;;;;;;;5.20;1.33;;;21.30;54.60;;;;;;5060550;28;20559;-86
2021/05/23 12:04:17;;;;;;;7.33;1.80;;;20.50;57.50;;;;;;5059299;28;20444;-86
2021/05/23 12:06:46;;;;;;;9.27;2.03;;;20.00;59.10;;;;;;5059591;28;20555;-88
2021/05/23 12:09:14;;;;;;;7.17;1.83;;;19.60;61.30;;;;;;5056597;28;20474;-88
2021/05/23 12:11:45;;;;;;;4.47;1.10;;;19.70;60.60;;;;;;5057898;28;20490;-86
2021/05/23 12:14:23;;;;;;;6.53;1.37;;;21.30;62.70;;;;;;5057950;28;20476;-87
2021/05/23 12:16:51;;;;;;;5.23;1.20;;;24.40;59.00;;;;;;5057957;28;20436;-87
2021/05/23 12:19:19;;;;;;;8.07;1.73;;;26.70;54.20;;;;;;5058011;28;20448;-88
2021/05/23 12:21:46;;;;;;;6.20;1.30;;;26.30;50.70;;;;;;5056126;28;20967;-86
2021/05/23 12:24:12;;;;;;;5.63;1.50;;;26.00;51.50;;;;;;5060171;28;20448;-87
2021/05/23 12:26:42;;;;;;;7.30;1.17;;;24.90;53.60;;;;;;5062317;28;20452;-87
2021/05/23 12:29:08;;;;;;;8.93;1.57;;;23.30;54.00;;;;;;5062056;28;20451;-87
2021/05/23 12:31:36;;;;;;;5.67;1.50;;;21.90;54.80;;;;;;5061505;28;20500;-87
2021/05/23 12:34:06;;;;;;;6.30;1.37;;;22.50;54.60;;;;;;5062055;28;20483;-86
2021/05/23 12:36:33;;;;;;;5.87;1.63;;;23.10;53.90;;;;;;5061868;28;20467;-87
2021/05/23 12:39:05;;;;;;;5.70;1.40;;;23.00;54.50;;;;;;5062277;28;20539;-89
2021/05/23 12:41:36;;;;;;;6.53;1.67;;;24.70;59.10;;;;;;5062037;28;20526;-87
2021/05/23 12:44:15;;;;;;;5.27;1.30;;;27.30;54.10;;;;;;5061398;28;20462;-88